createdAt,value
2022-11-24T00:00:25.519Z,16.81
2022-11-24T00:01:27.369Z,17.21
2022-11-24T00:02:29.338Z,16.95
2022-11-24T00:03:31.329Z,17.02
2022-11-24T00:04:33.475Z,17.15
2022-11-24T00:05:35.497Z,15.80
2022-11-24T00:06:37.445Z,16.93
2022-11-24T00:07:39.362Z,17.23
2022-11-24T00:08:41.347Z,17.11
2022-11-24T00:09:43.223Z,19.91
2022-11-24T00:10:45.086Z,16.81
2022-11-24T00:11:46.942Z,18.90
2022-11-24T00:12:48.773Z,18.30
2022-11-24T00:13:50.673Z,18.63
2022-11-24T00:14:52.533Z,17.11
2022-11-24T00:15:54.368Z,20.13
2022-11-24T00:16:56.309Z,17.30
2022-11-24T00:17:58.336Z,16.88
2022-11-24T00:19:00.220Z,17.49
2022-11-24T00:20:02.078Z,16.05
2022-11-24T00:21:03.946Z,17.91
2022-11-24T00:22:05.789Z,16.85
2022-11-24T00:23:07.636Z,16.28
2022-11-24T00:24:09.520Z,16.26
2022-11-24T00:25:11.493Z,18.04
2022-11-24T00:26:13.433Z,20.43
2022-11-24T00:27:15.296Z,18.17
2022-11-24T00:28:17.155Z,19.38
2022-11-24T00:29:19.336Z,18.97
2022-11-24T00:30:21.194Z,19.36
2022-11-24T00:31:23.110Z,18.67
2022-11-24T00:32:25.099Z,19.33
2022-11-24T00:33:26.961Z,19.18
2022-11-24T00:34:28.840Z,20.16
2022-11-24T00:35:30.701Z,20.22
2022-11-24T00:36:32.644Z,17.97
2022-11-24T00:37:34.502Z,18.18
2022-11-24T00:38:36.380Z,18.33
2022-11-24T00:39:38.374Z,19.87
2022-11-24T00:40:40.456Z,17.46
2022-11-24T00:41:42.299Z,17.20
2022-11-24T00:42:44.152Z,16.75
2022-11-24T00:43:45.996Z,16.54
2022-11-24T00:44:47.875Z,17.01
2022-11-24T00:45:49.818Z,18.65
2022-11-24T00:46:51.782Z,17.32
2022-11-24T00:47:53.720Z,15.63
2022-11-24T00:48:55.735Z,18.87
2022-11-24T00:49:57.717Z,18.40
2022-11-24T00:50:59.554Z,16.99
2022-11-24T00:52:01.416Z,18.41
2022-11-24T00:53:03.261Z,15.77
2022-11-24T00:54:05.105Z,15.64
2022-11-24T00:55:07.025Z,17.42
2022-11-24T00:56:09.158Z,19.37
2022-11-24T00:57:10.990Z,18.65
2022-11-24T00:58:12.830Z,16.41
2022-11-24T00:59:14.692Z,17.51
2022-11-24T01:00:16.577Z,14.60
2022-11-24T01:01:18.514Z,16.51
2022-11-24T01:02:20.440Z,17.83
2022-11-24T01:03:22.360Z,16.24
2022-11-24T01:04:24.200Z,16.65
2022-11-24T01:05:26.097Z,16.52
2022-11-24T01:06:27.955Z,16.87
2022-11-24T01:07:29.858Z,19.16
2022-11-24T01:08:31.750Z,16.81
2022-11-24T01:09:33.592Z,16.99
2022-11-24T01:10:35.497Z,16.17
2022-11-24T01:11:37.483Z,16.28
2022-11-24T01:12:39.347Z,14.31
2022-11-24T01:13:41.194Z,14.55
2022-11-24T01:14:43.051Z,15.01
2022-11-24T01:15:44.961Z,17.48
2022-11-24T01:16:46.905Z,15.51
2022-11-24T01:17:48.756Z,15.84
2022-11-24T01:18:50.596Z,15.65
2022-11-24T01:19:52.502Z,16.73
2022-11-24T01:20:54.508Z,15.74
2022-11-24T01:21:56.339Z,14.82
2022-11-24T01:22:58.177Z,16.72
2022-11-24T01:24:00.047Z,13.44
2022-11-24T01:25:01.896Z,14.09
2022-11-24T01:26:03.793Z,16.81
2022-11-24T01:27:05.719Z,32.44
2022-11-24T01:28:07.557Z,36.68
2022-11-24T01:29:09.427Z,38.56
2022-11-24T01:30:11.378Z,40.33
2022-11-24T01:31:13.367Z,46.36
2022-11-24T01:32:15.345Z,30.31
2022-11-24T01:33:17.197Z,25.65
2022-11-24T01:34:19.046Z,26.08
2022-11-24T01:35:20.918Z,21.76
2022-11-24T01:36:22.820Z,16.31
2022-11-24T01:37:24.687Z,17.03
2022-11-24T01:38:26.565Z,15.79
2022-11-24T01:39:28.405Z,16.12
2022-11-24T01:40:30.279Z,17.09
2022-11-24T01:41:32.137Z,15.06
2022-11-24T01:42:34.142Z,18.21
2022-11-24T01:43:35.991Z,17.27
2022-11-24T01:44:37.839Z,15.23
2022-11-24T01:45:39.683Z,16.16
2022-11-24T01:46:41.689Z,17.75
2022-11-24T01:47:43.543Z,15.16
2022-11-24T01:48:45.490Z,19.32
2022-11-24T01:49:47.334Z,17.72
2022-11-24T01:50:49.298Z,17.67
2022-11-24T01:51:51.176Z,15.51
2022-11-24T01:52:53.025Z,16.31
2022-11-24T01:53:54.878Z,15.81
2022-11-24T01:54:56.736Z,15.47
2022-11-24T01:55:58.588Z,17.35
2022-11-24T01:57:00.583Z,14.81
2022-11-24T01:58:02.646Z,15.77
2022-11-24T01:59:04.496Z,16.85
2022-11-24T02:00:06.749Z,17.59
2022-11-24T02:01:08.700Z,17.78
2022-11-24T02:02:10.680Z,16.51
2022-11-24T02:03:12.557Z,14.43
2022-11-24T02:04:14.414Z,15.77
2022-11-24T02:05:16.268Z,16.42
2022-11-24T02:06:18.257Z,15.49
2022-11-24T02:07:20.261Z,15.38
2022-11-24T02:08:22.137Z,15.56
2022-11-24T02:09:24.089Z,15.06
2022-11-24T02:10:26.142Z,14.97
2022-11-24T02:11:27.988Z,13.89
2022-11-24T02:12:29.877Z,15.71
2022-11-24T02:13:31.874Z,14.05
2022-11-24T02:14:33.993Z,13.46
2022-11-24T02:15:36.150Z,15.01
2022-11-24T02:16:38.121Z,14.57
2022-11-24T02:17:40.024Z,14.69
2022-11-24T02:18:41.890Z,13.25
2022-11-24T02:19:43.718Z,14.89
2022-11-24T02:20:45.557Z,15.93
2022-11-24T02:21:47.416Z,13.22
2022-11-24T02:22:49.291Z,12.85
2022-11-24T02:23:51.141Z,13.24
2022-11-24T02:24:52.982Z,13.76
2022-11-24T02:25:54.821Z,12.25
2022-11-24T02:26:56.646Z,14.73
2022-11-24T02:27:58.520Z,12.89
2022-11-24T02:29:00.633Z,12.97
2022-11-24T02:30:02.565Z,12.75
2022-11-24T02:31:04.462Z,12.47
2022-11-24T02:32:06.322Z,13.11
2022-11-24T02:33:08.202Z,13.73
2022-11-24T02:34:10.053Z,14.38
2022-11-24T02:35:11.893Z,18.06
2022-11-24T02:36:13.925Z,18.77
2022-11-24T02:37:15.763Z,11.93
2022-11-24T02:38:17.662Z,13.51
2022-11-24T02:39:19.488Z,14.16
2022-11-24T02:40:21.438Z,14.90
2022-11-24T02:41:23.288Z,15.33
2022-11-24T02:42:25.105Z,14.37
2022-11-24T02:43:26.966Z,14.09
2022-11-24T02:44:28.821Z,12.26
2022-11-24T02:45:30.673Z,13.59
2022-11-24T02:46:32.649Z,12.41
2022-11-24T02:47:34.537Z,12.17
2022-11-24T02:48:36.425Z,14.55
2022-11-24T02:49:38.271Z,11.93
2022-11-24T02:50:40.219Z,12.66
2022-11-24T02:51:42.056Z,13.59
2022-11-24T02:52:43.896Z,12.61
2022-11-24T02:53:45.804Z,12.04
2022-11-24T02:54:47.645Z,12.19
2022-11-24T02:55:49.489Z,12.80
2022-11-24T02:56:51.334Z,12.61
2022-11-24T02:57:53.183Z,13.65
2022-11-24T02:58:55.055Z,12.45
2022-11-24T02:59:57.020Z,12.57
2022-11-24T03:00:58.973Z,11.23
2022-11-24T03:02:00.831Z,12.53
2022-11-24T03:03:03.039Z,13.39
2022-11-24T03:04:04.938Z,13.52
2022-11-24T03:05:06.781Z,19.12
2022-11-24T03:06:08.635Z,13.60
2022-11-24T03:07:10.517Z,16.57
2022-11-24T03:08:12.413Z,13.19
2022-11-24T03:09:14.296Z,13.57
2022-11-24T03:10:16.149Z,15.21
2022-11-24T03:11:17.992Z,11.52
2022-11-24T03:12:19.839Z,12.13
2022-11-24T03:13:21.684Z,11.06
2022-11-24T03:14:23.588Z,12.29
2022-11-24T03:15:25.633Z,10.70
2022-11-24T03:16:27.599Z,14.09
2022-11-24T03:17:29.419Z,12.61
2022-11-24T03:18:31.274Z,13.46
2022-11-24T03:19:33.162Z,13.44
2022-11-24T03:20:35.099Z,13.13
2022-11-24T03:21:37.056Z,14.06
2022-11-24T03:22:38.893Z,12.09
2022-11-24T03:23:40.751Z,12.58
2022-11-24T03:24:42.648Z,12.20
2022-11-24T03:25:44.484Z,13.48
2022-11-24T03:26:46.316Z,14.09
2022-11-24T03:27:48.176Z,15.03
2022-11-24T03:28:50.022Z,14.92
2022-11-24T03:29:51.899Z,15.22
2022-11-24T03:30:53.974Z,15.91
2022-11-24T03:31:55.870Z,14.38
2022-11-24T03:32:57.699Z,15.91
2022-11-24T03:33:59.535Z,15.60
2022-11-24T03:35:01.413Z,17.89
2022-11-24T03:36:03.268Z,15.72
2022-11-24T03:37:05.095Z,21.01
2022-11-24T03:38:06.939Z,18.85
2022-11-24T03:39:08.779Z,16.88
2022-11-24T03:40:10.970Z,17.29
2022-11-24T03:41:12.828Z,17.57
2022-11-24T03:42:14.667Z,18.93
2022-11-24T03:43:16.519Z,17.91
2022-11-24T03:44:18.376Z,17.26
2022-11-24T03:45:44.902Z,19.81
2022-11-24T03:46:23.956Z,17.02
2022-11-24T03:47:25.874Z,16.85
2022-11-24T03:48:27.707Z,19.43
2022-11-24T03:49:29.544Z,17.15
2022-11-24T03:50:31.425Z,20.59
2022-11-24T03:51:33.273Z,16.91
2022-11-24T03:52:35.136Z,19.78
2022-11-24T03:53:36.973Z,18.77
2022-11-24T03:54:39.073Z,23.39
2022-11-24T03:55:40.977Z,21.81
2022-11-24T03:56:42.909Z,19.85
2022-11-24T03:57:44.764Z,20.14
2022-11-24T03:58:46.611Z,20.33
2022-11-24T03:59:48.451Z,18.69
2022-11-24T04:00:50.432Z,22.91
2022-11-24T04:01:52.386Z,24.03
2022-11-24T04:02:54.219Z,24.99
2022-11-24T04:03:56.051Z,25.71
2022-11-24T04:04:57.893Z,21.94
2022-11-24T04:05:59.784Z,22.89
2022-11-24T04:07:01.631Z,25.11
2022-11-24T04:08:03.479Z,25.75
2022-11-24T04:09:05.325Z,22.63
2022-11-24T04:10:07.269Z,18.93
2022-11-24T04:11:09.153Z,19.97
2022-11-24T04:12:10.995Z,18.65
2022-11-24T04:13:12.847Z,22.20
2022-11-24T04:14:14.714Z,18.61
2022-11-24T04:15:16.565Z,19.49
2022-11-24T04:16:18.496Z,20.67
2022-11-24T04:17:20.398Z,17.70
2022-11-24T04:18:22.251Z,18.25
2022-11-24T04:19:24.087Z,19.01
2022-11-24T04:20:25.925Z,19.05
2022-11-24T04:21:27.819Z,20.48
2022-11-24T04:22:29.670Z,18.56
2022-11-24T04:23:31.513Z,18.11
2022-11-24T04:24:33.395Z,17.95
2022-11-24T04:25:35.393Z,17.01
2022-11-24T04:26:37.356Z,19.11
2022-11-24T04:27:39.197Z,18.61
2022-11-24T04:28:41.049Z,20.74
2022-11-24T04:29:42.876Z,20.21
2022-11-24T04:30:45.161Z,15.53
2022-11-24T04:31:47.278Z,16.95
2022-11-24T04:32:49.411Z,20.05
2022-11-24T04:33:51.240Z,18.36
2022-11-24T04:34:53.075Z,17.44
2022-11-24T04:35:54.928Z,19.28
2022-11-24T04:36:56.927Z,19.47
2022-11-24T04:37:58.770Z,17.87
2022-11-24T04:39:25.875Z,19.18
2022-11-24T04:40:04.371Z,20.06
2022-11-24T04:41:06.235Z,18.97
2022-11-24T04:42:08.126Z,16.64
2022-11-24T04:43:09.988Z,18.26
2022-11-24T04:44:11.820Z,16.65
2022-11-24T04:45:13.656Z,18.11
2022-11-24T04:46:15.705Z,18.24
2022-11-24T04:47:17.603Z,17.64
2022-11-24T04:48:19.509Z,17.35
2022-11-24T04:49:21.361Z,17.94
2022-11-24T04:50:23.331Z,17.87
2022-11-24T04:51:25.163Z,16.44
2022-11-24T04:52:27.075Z,18.63
2022-11-24T04:53:28.933Z,19.43
2022-11-24T04:54:30.868Z,18.16
2022-11-24T04:55:32.717Z,17.69
2022-11-24T04:56:34.582Z,16.98
2022-11-24T04:57:36.535Z,17.71
2022-11-24T04:58:38.376Z,17.44
2022-11-24T04:59:40.236Z,19.22
2022-11-24T05:00:42.286Z,16.47
2022-11-24T05:01:44.195Z,15.27
2022-11-24T05:02:46.119Z,18.00
2022-11-24T05:03:48.151Z,17.88
2022-11-24T05:04:50.029Z,17.02
2022-11-24T05:05:51.876Z,15.28
2022-11-24T05:06:53.846Z,18.29
2022-11-24T05:07:55.709Z,15.70
2022-11-24T05:08:57.478Z,16.44
2022-11-24T05:09:59.900Z,16.02
2022-11-24T05:11:01.759Z,15.46
2022-11-24T05:12:03.591Z,18.26
2022-11-24T05:13:05.458Z,16.35
2022-11-24T05:14:07.261Z,15.32
2022-11-24T05:15:09.063Z,14.65
2022-11-24T05:16:10.922Z,18.65
2022-11-24T05:17:12.783Z,15.51
2022-11-24T05:18:14.631Z,16.07
2022-11-24T05:19:16.913Z,15.37
2022-11-24T05:20:18.721Z,15.94
2022-11-24T05:21:20.523Z,17.65
2022-11-24T05:22:22.337Z,16.65
2022-11-24T05:23:24.182Z,14.27
2022-11-24T05:24:25.983Z,16.01
2022-11-24T05:25:27.778Z,15.99
2022-11-24T05:26:29.679Z,16.41
2022-11-24T05:27:31.491Z,17.50
2022-11-24T05:28:33.458Z,14.79
2022-11-24T05:29:35.773Z,17.38
2022-11-24T05:30:37.566Z,16.14
2022-11-24T05:31:39.445Z,16.98
2022-11-24T05:32:41.274Z,16.81
2022-11-24T05:33:43.117Z,17.13
2022-11-24T05:34:44.949Z,15.01
2022-11-24T05:35:46.760Z,16.55
2022-11-24T05:36:48.661Z,17.38
2022-11-24T05:37:50.473Z,17.84
2022-11-24T05:38:52.311Z,14.79
2022-11-24T05:39:54.135Z,14.80
2022-11-24T05:40:55.940Z,17.29
2022-11-24T05:41:57.737Z,15.75
2022-11-24T05:42:59.558Z,16.87
2022-11-24T05:44:02.326Z,15.76
2022-11-24T05:45:04.139Z,16.35
2022-11-24T05:46:06.032Z,17.39
2022-11-24T05:48:18.762Z,15.03
2022-11-24T05:49:20.606Z,15.71
2022-11-24T05:50:22.586Z,15.98
2022-11-24T05:51:24.420Z,17.61
2022-11-24T05:52:26.225Z,16.05
2022-11-24T05:53:28.016Z,17.87
2022-11-24T05:54:29.855Z,17.47
2022-11-24T05:55:31.701Z,17.72
2022-11-24T05:56:33.517Z,16.71
2022-11-24T05:57:35.321Z,19.65
2022-11-24T05:58:37.154Z,21.13
2022-11-24T05:59:39.029Z,20.44
2022-11-24T06:00:40.875Z,21.67
2022-11-24T06:01:42.791Z,22.63
2022-11-24T06:02:44.759Z,22.54
2022-11-24T06:03:46.654Z,21.73
2022-11-24T06:04:48.511Z,20.29
2022-11-24T06:05:51.188Z,20.99
2022-11-24T06:06:53.082Z,18.73
2022-11-24T06:07:54.938Z,19.81
2022-11-24T06:08:56.832Z,19.69
2022-11-24T06:09:58.666Z,19.53
2022-11-24T06:11:00.601Z,18.16
2022-11-24T06:12:02.416Z,24.66
2022-11-24T06:13:04.301Z,25.24
2022-11-24T06:14:10.906Z,24.59
2022-11-24T06:15:09.943Z,22.06
2022-11-24T06:16:11.925Z,20.31
2022-11-24T06:17:13.815Z,24.71
2022-11-24T06:18:15.625Z,21.90
2022-11-24T06:19:17.453Z,22.03
2022-11-24T06:20:19.421Z,20.27
2022-11-24T06:21:21.479Z,22.18
2022-11-24T06:22:23.301Z,20.03
2022-11-24T06:23:25.114Z,19.58
2022-11-24T06:24:26.942Z,21.51
2022-11-24T06:25:28.826Z,21.19
2022-11-24T06:26:30.779Z,19.81
2022-11-24T06:27:32.601Z,18.61
2022-11-24T06:28:34.393Z,19.75
2022-11-24T06:29:36.197Z,20.26
2022-11-24T06:30:38.157Z,19.83
2022-11-24T06:31:40.056Z,20.14
2022-11-24T06:32:46.302Z,19.66
2022-11-24T06:33:45.664Z,19.93
2022-11-24T06:34:47.486Z,19.22
2022-11-24T06:35:49.319Z,18.35
2022-11-24T06:36:51.214Z,18.63
2022-11-24T06:37:53.021Z,17.04
2022-11-24T06:38:54.804Z,19.29
2022-11-24T06:39:56.885Z,16.41
2022-11-24T06:40:58.847Z,18.76
2022-11-24T06:42:00.645Z,19.19
2022-11-24T06:43:02.469Z,19.88
2022-11-24T06:44:04.326Z,16.64
2022-11-24T06:45:09.456Z,18.25
2022-11-24T06:46:10.072Z,16.58
2022-11-24T06:47:11.998Z,18.09
2022-11-24T06:48:13.832Z,19.50
2022-11-24T06:49:15.620Z,18.01
2022-11-24T06:50:17.535Z,16.65
2022-11-24T06:51:19.386Z,18.25
2022-11-24T06:52:21.220Z,18.31
2022-11-24T06:53:23.037Z,17.24
2022-11-24T06:54:24.845Z,17.15
2022-11-24T06:55:26.648Z,18.54
2022-11-24T06:56:28.544Z,18.90
2022-11-24T06:57:30.383Z,21.11
2022-11-24T06:58:32.186Z,20.75
2022-11-24T06:59:33.992Z,17.38
2022-11-24T07:00:35.797Z,20.39
2022-11-24T07:01:37.760Z,20.69
2022-11-24T07:02:45.890Z,19.38
2022-11-24T07:03:45.635Z,19.85
2022-11-24T07:04:47.451Z,20.86
2022-11-24T07:05:49.272Z,18.62
2022-11-24T07:06:51.123Z,17.69
2022-11-24T07:07:53.147Z,20.04
2022-11-24T07:08:54.940Z,18.69
2022-11-24T07:09:56.748Z,17.52
2022-11-24T07:10:58.648Z,19.83
2022-11-24T07:12:00.527Z,17.15
2022-11-24T07:13:02.351Z,19.44
2022-11-24T07:14:04.188Z,21.81
2022-11-24T07:15:06.006Z,16.83
2022-11-24T07:16:07.839Z,18.53
2022-11-24T07:17:09.668Z,17.82
2022-11-24T07:18:11.505Z,17.39
2022-11-24T07:19:13.305Z,20.97
2022-11-24T07:20:15.324Z,23.76
2022-11-24T07:21:17.172Z,23.69
2022-11-24T07:22:19.023Z,23.61
2022-11-24T07:23:20.935Z,20.97
2022-11-24T07:24:22.741Z,16.33
2022-11-24T07:25:24.541Z,19.29
2022-11-24T07:26:26.369Z,15.47
2022-11-24T07:27:28.202Z,18.94
2022-11-24T07:28:30.025Z,19.83
2022-11-24T07:29:31.817Z,21.88
2022-11-24T07:30:33.944Z,20.69
2022-11-24T07:31:35.887Z,26.54
2022-11-24T07:32:37.913Z,20.56
2022-11-24T07:33:39.738Z,24.15
2022-11-24T07:34:41.552Z,25.51
2022-11-24T07:35:43.361Z,27.95
2022-11-24T07:36:45.317Z,24.78
2022-11-24T07:37:47.153Z,22.95
2022-11-24T07:38:48.998Z,22.28
2022-11-24T07:39:50.809Z,28.01
2022-11-24T07:40:52.734Z,21.74
2022-11-24T07:41:54.570Z,16.31
2022-11-24T07:42:56.416Z,25.84
2022-11-24T07:43:58.233Z,24.37
2022-11-24T07:45:00.068Z,21.77
2022-11-24T07:46:02.318Z,19.44
2022-11-24T07:47:04.198Z,20.55
2022-11-24T07:48:06.061Z,15.20
2022-11-24T07:49:08.106Z,17.36
2022-11-24T07:50:10.142Z,17.88
2022-11-24T07:51:11.970Z,19.69
2022-11-24T07:52:13.771Z,17.68
2022-11-24T07:53:15.630Z,17.18
2022-11-24T07:54:17.616Z,17.66
2022-11-24T07:55:19.438Z,16.35
2022-11-24T07:56:21.336Z,16.68
2022-11-24T07:57:23.156Z,16.98
2022-11-24T07:58:30.360Z,17.51
2022-11-24T07:59:28.608Z,23.42
2022-11-24T08:00:30.510Z,23.93
2022-11-24T08:01:32.350Z,21.79
2022-11-24T08:02:34.222Z,18.10
2022-11-24T08:03:36.156Z,15.23
2022-11-24T08:04:38.219Z,14.73
2022-11-24T08:06:00.747Z,16.27
2022-11-24T08:06:47.361Z,15.95
2022-11-24T08:07:47.506Z,13.58
2022-11-24T08:08:49.286Z,14.35
2022-11-24T08:09:51.157Z,19.53
2022-11-24T08:10:52.992Z,13.24
2022-11-24T08:11:54.824Z,12.33
2022-11-24T08:12:56.627Z,15.48
2022-11-24T08:13:58.416Z,13.01
2022-11-24T08:15:00.217Z,14.59
2022-11-24T08:16:02.198Z,13.41
2022-11-24T08:17:04.036Z,14.92
2022-11-24T08:18:05.795Z,12.38
2022-11-24T08:19:07.598Z,12.80
2022-11-24T08:20:09.407Z,10.68
2022-11-24T08:21:11.247Z,13.69
2022-11-24T08:22:13.065Z,14.54
2022-11-24T08:23:14.848Z,14.51
2022-11-24T08:24:16.664Z,16.29
2022-11-24T08:25:18.527Z,13.97
2022-11-24T08:26:20.464Z,17.01
2022-11-24T08:27:22.281Z,16.83
2022-11-24T08:28:24.083Z,12.51
2022-11-24T08:29:25.876Z,13.62
2022-11-24T08:30:27.799Z,17.14
2022-11-24T08:31:29.706Z,17.02
2022-11-24T08:32:31.564Z,15.00
2022-11-24T08:33:33.387Z,15.97
2022-11-24T08:34:35.338Z,15.28
2022-11-24T08:35:37.307Z,15.63
2022-11-24T08:36:39.147Z,17.81
2022-11-24T08:37:40.974Z,14.51
2022-11-24T08:38:42.768Z,12.85
2022-11-24T08:39:44.610Z,15.64
2022-11-24T08:40:46.609Z,17.57
2022-11-24T08:41:48.469Z,18.71
2022-11-24T08:42:50.270Z,18.34
2022-11-24T08:43:52.069Z,18.27
2022-11-24T08:44:58.801Z,17.72
2022-11-24T08:45:57.678Z,16.65
2022-11-24T08:46:59.698Z,14.70
2022-11-24T08:48:01.515Z,16.42
2022-11-24T08:49:03.326Z,14.09
2022-11-24T08:50:05.464Z,18.27
2022-11-24T08:51:07.243Z,12.79
2022-11-24T08:52:09.101Z,15.71
2022-11-24T08:53:10.907Z,14.95
2022-11-24T08:54:12.704Z,17.29
2022-11-24T08:55:14.500Z,15.53
2022-11-24T08:56:16.415Z,16.59
2022-11-24T08:57:21.819Z,17.11
2022-11-24T08:58:21.905Z,18.56
2022-11-24T08:59:23.739Z,15.99
2022-11-24T09:00:25.719Z,16.26
2022-11-24T09:01:27.605Z,14.49
2022-11-24T09:02:29.575Z,17.07
2022-11-24T09:03:31.392Z,18.10
2022-11-24T09:04:33.703Z,16.61
2022-11-24T09:05:52.732Z,17.61
2022-11-24T09:06:39.593Z,16.55
2022-11-24T09:07:41.509Z,14.88
2022-11-24T09:08:43.338Z,14.17
2022-11-24T09:09:45.137Z,15.01
2022-11-24T09:10:47.066Z,18.17
2022-11-24T09:11:48.902Z,21.74
2022-11-24T09:12:50.777Z,15.79
2022-11-24T09:13:52.585Z,15.13
2022-11-24T09:14:54.404Z,15.51
2022-11-24T09:15:56.203Z,15.24
2022-11-24T09:16:58.186Z,18.99
2022-11-24T09:18:00.191Z,13.83
2022-11-24T09:19:02.022Z,13.12
2022-11-24T09:20:03.849Z,12.39
2022-11-24T09:21:05.672Z,13.71
2022-11-24T09:22:07.500Z,13.91
2022-11-24T09:23:09.383Z,16.31
2022-11-24T09:24:11.233Z,13.42
2022-11-24T09:25:13.056Z,13.81
2022-11-24T09:26:14.975Z,14.08
2022-11-24T09:27:16.878Z,13.17
2022-11-24T09:28:18.700Z,13.24
2022-11-24T09:29:20.532Z,13.21
2022-11-24T09:30:22.451Z,13.08
2022-11-24T09:31:24.368Z,14.21
2022-11-24T09:32:26.196Z,15.64
2022-11-24T09:33:28.060Z,13.05
2022-11-24T09:34:29.857Z,14.90
2022-11-24T09:35:31.677Z,16.55
2022-11-24T09:36:33.593Z,14.12
2022-11-24T09:37:35.396Z,15.73
2022-11-24T09:38:37.259Z,15.85
2022-11-24T09:39:39.063Z,15.88
2022-11-24T09:40:40.872Z,20.39
2022-11-24T09:41:42.688Z,14.47
2022-11-24T09:42:48.068Z,17.03
2022-11-24T09:43:48.233Z,20.39
2022-11-24T09:44:50.102Z,17.45
2022-11-24T09:46:07.412Z,25.06
2022-11-24T09:46:55.845Z,13.92
2022-11-24T09:47:57.816Z,14.47
2022-11-24T09:48:59.696Z,14.52
2022-11-24T09:50:01.728Z,16.33
2022-11-24T09:51:03.587Z,19.38
2022-11-24T09:52:05.407Z,15.29
2022-11-24T09:53:07.222Z,13.88
2022-11-24T09:54:09.098Z,16.31
2022-11-24T09:55:10.924Z,15.09
2022-11-24T09:56:12.963Z,15.02
2022-11-24T09:57:14.771Z,18.34
2022-11-24T09:58:16.674Z,15.47
2022-11-24T09:59:18.770Z,15.69
2022-11-24T10:00:20.646Z,14.63
2022-11-24T10:01:22.552Z,13.25
2022-11-24T10:02:24.533Z,12.83
2022-11-24T10:03:26.349Z,12.91
2022-11-24T10:04:28.287Z,18.99
2022-11-24T10:05:30.178Z,21.40
2022-11-24T10:06:32.001Z,17.41
2022-11-24T10:07:33.881Z,13.09
2022-11-24T10:08:35.740Z,13.98
2022-11-24T10:09:37.596Z,15.61
2022-11-24T10:10:39.525Z,16.51
2022-11-24T10:11:41.354Z,15.91
2022-11-24T10:12:43.186Z,17.96
2022-11-24T10:13:45.064Z,16.30
2022-11-24T10:14:46.939Z,15.76
2022-11-24T10:15:48.821Z,14.68
2022-11-24T10:16:51.436Z,17.31
2022-11-24T10:17:53.428Z,14.06
2022-11-24T10:18:55.273Z,13.26
2022-11-24T10:19:57.137Z,15.37
2022-11-24T10:20:58.978Z,16.00
2022-11-24T10:22:00.811Z,16.89
2022-11-24T10:23:02.620Z,15.46
2022-11-24T10:24:04.574Z,15.87
2022-11-24T10:25:06.434Z,15.33
2022-11-24T10:26:08.354Z,15.29
2022-11-24T10:27:10.191Z,15.10
2022-11-24T10:28:12.024Z,13.81
2022-11-24T10:29:13.834Z,13.53
2022-11-24T10:30:16.023Z,14.36
2022-11-24T10:31:17.900Z,14.79
2022-11-24T10:32:19.797Z,14.57
2022-11-24T10:33:27.100Z,17.19
2022-11-24T10:34:25.262Z,15.73
2022-11-24T10:35:27.130Z,15.29
2022-11-24T10:36:28.939Z,15.70
2022-11-24T10:37:30.793Z,15.34
2022-11-24T10:38:32.618Z,15.44
2022-11-24T10:39:34.800Z,15.01
2022-11-24T10:41:40.574Z,13.01
2022-11-24T10:42:42.392Z,13.11
2022-11-24T10:43:44.278Z,14.23
2022-11-24T10:44:46.294Z,13.57
2022-11-24T10:45:48.262Z,12.35
2022-11-24T10:46:50.475Z,14.68
2022-11-24T10:47:52.638Z,14.28
2022-11-24T10:48:54.488Z,14.53
2022-11-24T10:49:56.314Z,13.64
2022-11-24T10:50:58.271Z,15.15
2022-11-24T10:52:00.130Z,15.55
2022-11-24T10:53:01.953Z,15.91
2022-11-24T10:54:05.609Z,14.33
2022-11-24T10:55:07.412Z,17.94
2022-11-24T10:56:09.284Z,16.45
2022-11-24T10:57:11.097Z,14.79
2022-11-24T10:58:12.934Z,19.15
2022-11-24T10:59:14.781Z,19.08
2022-11-24T11:00:16.778Z,18.93
2022-11-24T11:01:18.656Z,24.47
2022-11-24T11:02:20.552Z,17.95
2022-11-24T11:03:22.457Z,19.99
2022-11-24T11:04:24.260Z,19.12
2022-11-24T11:05:26.089Z,19.59
2022-11-24T11:06:28.041Z,20.29
2022-11-24T11:07:29.866Z,21.19
2022-11-24T11:08:31.638Z,17.62
2022-11-24T11:09:33.809Z,19.09
2022-11-24T11:10:36.007Z,16.67
2022-11-24T11:11:37.889Z,17.10
2022-11-24T11:12:44.365Z,16.39
2022-11-24T11:13:43.340Z,18.36
2022-11-24T11:14:45.165Z,15.54
2022-11-24T11:15:48.304Z,19.39
2022-11-24T11:16:50.330Z,18.44
2022-11-24T11:17:52.165Z,16.94
2022-11-24T11:18:54.017Z,19.09
2022-11-24T11:20:01.987Z,19.32
2022-11-24T11:20:59.472Z,20.98
2022-11-24T11:22:01.345Z,18.53
2022-11-24T11:23:03.168Z,17.44
2022-11-24T11:24:04.991Z,19.52
2022-11-24T11:25:06.831Z,17.68
2022-11-24T11:26:08.744Z,15.19
2022-11-24T11:27:10.624Z,15.19
2022-11-24T11:28:17.688Z,14.95
2022-11-24T11:31:24.554Z,16.96
2022-11-24T11:34:33.833Z,17.24
2022-11-24T11:35:35.667Z,17.37
2022-11-24T11:36:37.607Z,19.16
2022-11-24T11:37:39.460Z,12.85
2022-11-24T11:38:41.294Z,13.23
2022-11-24T11:39:48.441Z,14.95
2022-11-24T11:40:46.729Z,16.47
2022-11-24T11:41:48.541Z,14.73
2022-11-24T11:43:05.749Z,15.20
2022-11-24T11:43:54.022Z,15.13
2022-11-24T11:44:55.855Z,14.49
2022-11-24T11:45:57.732Z,16.09
2022-11-24T11:47:00.065Z,19.33
2022-11-24T11:48:02.061Z,21.48
2022-11-24T11:49:03.855Z,20.17
2022-11-24T11:50:05.905Z,20.37
2022-11-24T11:51:22.817Z,18.94
2022-11-24T11:52:11.351Z,17.30
2022-11-24T11:53:13.206Z,20.29
2022-11-24T11:54:15.052Z,16.21
2022-11-24T11:55:16.864Z,16.25
2022-11-24T11:56:18.689Z,18.54
2022-11-24T11:57:20.495Z,19.47
2022-11-24T11:58:22.373Z,21.58
2022-11-24T11:59:24.208Z,24.22
2022-11-24T12:00:26.136Z,20.29
2022-11-24T12:01:27.970Z,19.13
2022-11-24T12:02:30.009Z,17.88
2022-11-24T12:03:31.971Z,17.81
2022-11-24T12:04:34.112Z,15.39
2022-11-24T12:05:36.060Z,14.27
2022-11-24T12:06:37.873Z,17.24
2022-11-24T12:07:39.759Z,15.19
2022-11-24T12:09:11.366Z,15.97
2022-11-24T12:09:45.350Z,17.41
2022-11-24T12:10:47.306Z,16.93
2022-11-24T12:11:49.123Z,18.31
2022-11-24T12:12:50.942Z,17.79
2022-11-24T12:13:52.822Z,18.86
2022-11-24T12:14:54.646Z,16.67
2022-11-24T12:15:56.516Z,18.39
2022-11-24T12:16:58.464Z,18.62
2022-11-24T12:18:00.369Z,19.33
2022-11-24T12:19:02.240Z,23.46
2022-11-24T12:20:04.363Z,24.95
2022-11-24T12:21:06.180Z,25.54
2022-11-24T12:22:08.090Z,21.90
2022-11-24T12:23:09.902Z,22.48
2022-11-24T12:24:11.766Z,20.83
2022-11-24T12:25:13.592Z,17.79
2022-11-24T12:26:15.433Z,19.56
2022-11-24T12:27:22.454Z,20.91
2022-11-24T12:28:20.916Z,19.11
2022-11-24T12:29:22.796Z,19.39
2022-11-24T12:30:24.731Z,19.66
2022-11-24T12:31:26.613Z,21.72
2022-11-24T12:32:28.556Z,18.95
2022-11-24T12:33:30.680Z,21.27
2022-11-24T12:34:32.532Z,20.11
2022-11-24T12:35:34.350Z,21.45
2022-11-24T12:36:36.276Z,23.35
2022-11-24T12:37:38.074Z,18.59
2022-11-24T12:38:39.878Z,24.69
2022-11-24T12:39:41.738Z,22.39
2022-11-24T12:40:47.184Z,21.22
2022-11-24T12:41:47.305Z,18.86
2022-11-24T12:42:49.118Z,17.67
2022-11-24T12:43:50.930Z,18.59
2022-11-24T12:44:52.788Z,19.61
2022-11-24T12:45:54.620Z,19.98
2022-11-24T12:46:56.603Z,23.19
2022-11-24T12:47:58.491Z,19.74
2022-11-24T12:49:00.321Z,18.46
2022-11-24T12:50:02.201Z,18.35
2022-11-24T12:51:04.007Z,18.24
2022-11-24T12:52:05.831Z,17.94
2022-11-24T12:53:07.639Z,20.07
2022-11-24T12:54:09.463Z,23.17
2022-11-24T12:55:11.343Z,19.72
2022-11-24T12:56:13.146Z,20.38
2022-11-24T12:57:14.952Z,25.61
2022-11-24T12:58:16.775Z,20.24
2022-11-24T12:59:18.606Z,24.20
2022-11-24T13:00:20.476Z,21.46
2022-11-24T13:01:22.340Z,21.21
2022-11-24T13:02:24.344Z,19.21
2022-11-24T13:03:26.333Z,21.59
2022-11-24T13:04:28.194Z,21.98
2022-11-24T13:05:30.188Z,20.41
2022-11-24T13:06:32.182Z,22.38
2022-11-24T13:07:34.050Z,20.37
2022-11-24T13:08:35.911Z,23.35
2022-11-24T13:09:37.752Z,24.73
2022-11-24T13:10:57.959Z,24.96
2022-11-24T13:11:45.013Z,22.76
2022-11-24T13:12:46.840Z,25.01
2022-11-24T13:13:48.661Z,24.86
2022-11-24T13:14:50.475Z,22.99
2022-11-24T13:16:13.081Z,22.82
2022-11-24T13:18:08.572Z,26.65
2022-11-24T13:19:03.638Z,25.31
2022-11-24T13:20:05.582Z,24.75
2022-11-24T13:21:07.462Z,22.89
2022-11-24T13:22:09.317Z,25.90
2022-11-24T13:23:14.949Z,24.17
2022-11-24T13:25:16.566Z,23.99
2022-11-24T13:26:18.545Z,24.97